CheckWX is a tool to help pilots better visualize weather data.  It is not intended as a substitute for an official pre-flight weather briefing.

12:58:38 UTC

EGVN TAF
RAF Brize Norton Airport
Brize Norton, United Kingdom
TAF EGVN 221010Z 2212/2312 22008KT 9999 BKN020 BECMG 2216/2219 BKN030 TEMPO 2220/2302 BKN010

Mar-22@
12:00 UTC

Mar-22 @ 12:00 UTC

Mar-22@
16:00 UTC

Mar-22 @ 16:00 UTC

TAF EGVN 221010Z 2212/2312 22008KT 9999 BKN020
Wind
  • 220° at 8 KTS
Cloud Levels
  • Broken at 2,000' AGL

Mar-22@
16:00 UTC

Mar-22 @ 16:00 UTC

Mar-23@
12:00 UTC

Mar-23 @ 12:00 UTC

BECMG 2216/2219 BKN030

Becoming

Becoming Conditions expected by Fri, Mar 22, 2019 @ 19:00 UTC

Wind
  • 220° at 8 KTS
Cloud Levels
  • Broken at 3,000' AGL

Mar-22@
20:00 UTC

Mar-22 @ 20:00 UTC

Mar-23@
02:00 UTC

Mar-23 @ 02:00 UTC

TEMPO 2220/2302 BKN010

Temporary

Temporary Changes expected for less than half the time period

Cloud Levels
  • Broken at 1,000' AGL